Time;durP1;ratioP1;P1;durP2;ratioP2;P2;SDS_P1;SDS_P2;PMS_P1;PMS_P2;Temp;Humidity;BMP_temperature;BMP_pressure;BME280_temperature;BME280_humidity;BME280_pressure;Samples;Min_cycle;Max_cycle;Signal;HPM_P1;HPM_P2
2021/08/14 00:01:18;;;;;;;58.33;2.80;;;19.70;1.00;;;;;;5090269;28;20546;-69
2021/08/14 00:03:45;;;;;;;58.57;2.90;;;19.70;1.00;;;;;;5090417;28;20482;-68
2021/08/14 00:06:16;;;;;;;59.30;3.70;;;19.70;1.00;;;;;;5090580;28;20450;-68
2021/08/14 00:08:45;;;;;;;58.83;2.83;;;19.70;1.00;;;;;;5090974;28;20817;-68
2021/08/14 00:11:12;;;;;;;58.43;3.23;;;19.70;1.00;;;;;;5092084;28;20466;-68
2021/08/14 00:13:38;;;;;;;59.10;2.60;;;19.70;1.00;;;;;;5092349;28;20880;-68
2021/08/14 00:16:06;;;;;;;58.47;3.00;;;19.60;1.00;;;;;;5091871;28;20452;-68
2021/08/14 00:18:33;;;;;;;58.60;3.23;;;19.60;1.00;;;;;;5092149;28;20459;-69
2021/08/14 00:21:00;;;;;;;59.40;3.30;;;19.60;1.00;;;;;;5090190;28;20494;-68
2021/08/14 00:23:26;;;;;;;58.13;2.70;;;19.50;1.00;;;;;;5090132;28;20565;-68
2021/08/14 00:25:57;;;;;;;58.57;2.80;;;19.50;1.00;;;;;;5090443;28;20528;-68
2021/08/14 00:28:24;;;;;;;58.77;3.07;;;19.40;1.00;;;;;;5090323;28;20474;-68
2021/08/14 00:30:51;;;;;;;58.30;2.97;;;19.40;1.00;;;;;;5089782;28;20545;-69
2021/08/14 00:33:18;;;;;;;58.60;2.90;;;19.30;1.00;;;;;;5090222;28;20533;-69
2021/08/14 00:35:44;;;;;;;58.70;3.10;;;19.30;1.00;;;;;;5090497;28;20446;-68
2021/08/14 00:38:11;;;;;;;58.23;2.50;;;19.30;1.00;;;;;;5090155;28;20533;-69
2021/08/14 00:40:40;;;;;;;58.37;2.70;;;19.20;1.00;;;;;;5090895;28;20497;-68
2021/08/14 00:43:09;;;;;;;58.50;2.57;;;19.20;1.00;;;;;;5091563;28;20481;-68
2021/08/14 00:45:39;;;;;;;58.37;2.70;;;19.20;1.00;;;;;;5092106;28;20541;-68
2021/08/14 00:48:08;;;;;;;58.37;2.90;;;19.10;1.00;;;;;;5091709;28;20442;-68
2021/08/14 00:50:34;;;;;;;58.67;3.10;;;19.10;1.00;;;;;;5089825;28;20446;-67
2021/08/14 00:53:01;;;;;;;58.73;2.73;;;19.00;1.00;;;;;;5089857;28;20946;-69
2021/08/14 00:55:28;;;;;;;58.77;3.07;;;19.00;1.00;;;;;;5089874;28;20702;-68
2021/08/14 00:57:55;;;;;;;58.47;3.40;;;19.00;1.00;;;;;;5089613;28;20551;-68
2021/08/14 01:00:24;;;;;;;58.80;2.97;;;19.00;1.00;;;;;;5089618;28;20495;-68
2021/08/14 01:02:51;;;;;;;61.53;3.50;;;18.90;1.00;;;;;;5089796;28;20496;-68
2021/08/14 01:05:18;;;;;;;59.17;3.50;;;18.90;1.00;;;;;;5089723;28;20448;-68
2021/08/14 01:07:45;;;;;;;58.67;3.47;;;18.90;1.00;;;;;;5089449;28;20447;-68
2021/08/14 01:10:12;;;;;;;58.93;3.10;;;18.80;1.00;;;;;;5090417;28;20446;-69
2021/08/14 01:12:39;;;;;;;58.20;3.00;;;18.80;1.00;;;;;;5091343;28;20545;-68
2021/08/14 01:15:07;;;;;;;59.93;3.97;;;18.90;1.00;;;;;;5091419;28;20553;-68
2021/08/14 01:17:37;;;;;;;58.77;3.10;;;18.80;1.00;;;;;;5091602;28;20536;-68
2021/08/14 01:20:05;;;;;;;58.00;2.70;;;18.80;1.00;;;;;;5090255;28;20468;-68
2021/08/14 01:22:32;;;;;;;58.70;3.17;;;18.80;1.00;;;;;;5089454;28;20962;-69
2021/08/14 01:24:59;;;;;;;58.37;2.67;;;18.80;1.00;;;;;;5089243;28;20556;-68
2021/08/14 01:27:27;;;;;;;58.57;2.70;;;18.70;1.00;;;;;;5090169;28;20449;-68
2021/08/14 01:29:54;;;;;;;58.53;2.70;;;18.70;1.00;;;;;;5092910;28;20448;-68
2021/08/14 01:32:21;;;;;;;58.07;2.57;;;18.70;1.00;;;;;;5093290;28;20466;-68
2021/08/14 01:34:49;;;;;;;58.47;2.53;;;18.60;1.00;;;;;;5093137;28;20922;-68
2021/08/14 01:37:16;;;;;;;58.70;2.80;;;18.60;1.00;;;;;;5093286;28;20525;-68
2021/08/14 01:39:43;;;;;;;58.50;2.80;;;18.60;1.00;;;;;;5093410;28;20449;-68
2021/08/14 01:42:10;;;;;;;58.60;2.70;;;18.60;1.00;;;;;;5094722;28;20496;-68
2021/08/14 01:44:39;;;;;;;58.80;3.03;;;18.60;1.00;;;;;;5093367;28;20456;-68
2021/08/14 01:47:07;;;;;;;58.70;2.93;;;18.50;1.00;;;;;;5094671;28;20581;-69
2021/08/14 01:49:34;;;;;;;58.57;2.60;;;18.50;1.00;;;;;;5094254;28;20473;-69
2021/08/14 01:52:08;;;;;;;58.93;3.03;;;18.50;1.00;;;;;;5092938;28;20556;-69
2021/08/14 01:54:34;;;;;;;58.30;2.80;;;18.40;1.00;;;;;;5093189;28;20453;-69
2021/08/14 01:57:01;;;;;;;58.33;2.67;;;18.40;1.00;;;;;;5092858;28;20522;-69
2021/08/14 01:59:28;;;;;;;58.60;3.23;;;18.40;1.00;;;;;;5092550;28;21016;-69
2021/08/14 02:01:56;;;;;;;58.77;3.00;;;18.30;1.00;;;;;;5092756;28;20501;-69
2021/08/14 02:04:23;;;;;;;59.00;2.97;;;18.20;1.00;;;;;;5092975;28;20949;-69
2021/08/14 02:06:50;;;;;;;58.87;3.37;;;18.20;1.00;;;;;;5092973;28;20653;-69
2021/08/14 02:09:17;;;;;;;58.57;3.00;;;18.20;1.00;;;;;;5092497;28;20484;-69
2021/08/14 02:11:44;;;;;;;58.47;2.70;;;18.10;1.00;;;;;;5094511;28;20474;-69
2021/08/14 02:14:12;;;;;;;60.60;3.63;;;18.10;1.00;;;;;;5094365;28;20548;-68
2021/08/14 02:16:39;;;;;;;59.10;3.00;;;18.10;1.00;;;;;;5094307;28;20544;-69
2021/08/14 02:19:07;;;;;;;58.30;2.70;;;18.10;1.00;;;;;;5094267;28;20477;-68
2021/08/14 02:21:35;;;;;;;58.30;2.67;;;18.10;1.00;;;;;;5092860;28;20520;-69
2021/08/14 02:24:02;;;;;;;59.83;4.83;;;18.00;1.00;;;;;;5092502;28;20486;-69
2021/08/14 02:26:29;;;;;;;58.60;3.03;;;18.00;1.00;;;;;;5092249;28;20541;-69
2021/08/14 02:28:56;;;;;;;57.90;2.50;;;18.00;1.00;;;;;;5092219;28;20540;-68
2021/08/14 02:31:23;;;;;;;58.80;3.00;;;18.00;1.00;;;;;;5092344;28;20553;-69
2021/08/14 02:33:52;;;;;;;59.40;3.27;;;17.90;1.00;;;;;;5092316;28;20532;-69
2021/08/14 02:36:20;;;;;;;59.70;3.00;;;17.90;1.00;;;;;;5092177;28;20846;-68
2021/08/14 02:38:47;;;;;;;58.97;3.30;;;17.90;1.00;;;;;;5092155;28;20453;-68
2021/08/14 02:41:14;;;;;;;58.07;2.53;;;17.90;1.00;;;;;;5093188;28;20484;-69
2021/08/14 02:43:41;;;;;;;59.97;3.93;;;17.80;1.00;;;;;;5093863;28;20640;-69
2021/08/14 02:46:08;;;;;;;59.10;3.40;;;17.80;1.00;;;;;;5093701;28;20541;-69
2021/08/14 02:48:35;;;;;;;58.33;3.03;;;17.70;1.00;;;;;;5093956;28;20446;-69
2021/08/14 02:51:02;;;;;;;58.80;3.50;;;17.70;1.00;;;;;;5092426;28;20507;-69
2021/08/14 02:53:30;;;;;;;58.57;3.30;;;17.70;1.00;;;;;;5091822;28;20451;-69
2021/08/14 02:55:57;;;;;;;58.83;2.97;;;17.60;1.00;;;;;;5091796;28;20776;-69
2021/08/14 02:58:24;;;;;;;58.93;3.10;;;17.60;1.00;;;;;;5092132;28;20448;-69
2021/08/14 03:00:51;;;;;;;59.50;3.30;;;17.50;1.00;;;;;;5091705;28;20896;-69
2021/08/14 03:03:18;;;;;;;58.57;3.63;;;17.50;1.00;;;;;;5091748;28;20481;-69
2021/08/14 03:05:44;;;;;;;59.47;3.47;;;17.50;1.00;;;;;;5091782;28;20477;-69
2021/08/14 03:08:12;;;;;;;59.87;3.63;;;17.40;1.00;;;;;;5091406;28;20452;-68
2021/08/14 03:10:40;;;;;;;58.67;3.50;;;17.40;1.00;;;;;;5091777;28;20461;-68
2021/08/14 03:13:07;;;;;;;58.90;2.90;;;17.40;1.00;;;;;;5093291;28;20441;-68
2021/08/14 03:15:35;;;;;;;58.87;2.83;;;17.40;1.00;;;;;;5093435;28;20477;-69
2021/08/14 03:18:02;;;;;;;58.97;3.00;;;17.30;1.00;;;;;;5093230;28;20545;-69
2021/08/14 03:20:29;;;;;;;58.87;3.50;;;17.30;1.00;;;;;;5092787;28;20453;-68
2021/08/14 03:22:56;;;;;;;60.47;3.60;;;17.30;1.00;;;;;;5091046;28;20485;-68
2021/08/14 03:25:23;;;;;;;58.90;3.10;;;17.20;1.00;;;;;;5091293;28;20451;-68
2021/08/14 03:27:52;;;;;;;59.60;3.77;;;17.20;1.00;;;;;;5091478;28;20452;-68
2021/08/14 03:30:20;;;;;;;58.80;3.07;;;17.20;1.00;;;;;;5091365;28;20526;-68
2021/08/14 03:32:47;;;;;;;58.33;2.90;;;17.20;1.00;;;;;;5091584;28;20522;-69
2021/08/14 03:35:15;;;;;;;58.67;2.90;;;17.20;1.00;;;;;;5091105;28;20528;-69
2021/08/14 03:37:42;;;;;;;59.13;3.20;;;17.20;1.00;;;;;;5091049;28;20456;-68
2021/08/14 03:40:10;;;;;;;58.67;2.90;;;17.10;1.00;;;;;;5090674;28;20588;-68
2021/08/14 03:42:37;;;;;;;59.70;4.40;;;17.10;1.00;;;;;;5092470;28;20779;-68
2021/08/14 03:45:06;;;;;;;58.37;3.40;;;17.20;1.00;;;;;;5092769;28;20446;-68
2021/08/14 03:47:33;;;;;;;58.67;3.20;;;17.20;1.00;;;;;;5092668;28;20552;-69
2021/08/14 03:49:59;;;;;;;58.27;3.03;;;17.20;1.00;;;;;;5091669;28;20484;-69
2021/08/14 03:52:26;;;;;;;58.87;3.03;;;17.10;1.00;;;;;;5090857;28;20953;-69
2021/08/14 03:54:53;;;;;;;58.57;2.90;;;17.20;1.00;;;;;;5091395;28;20451;-69
2021/08/14 03:57:20;;;;;;;61.00;5.00;;;17.10;1.00;;;;;;5090686;28;20959;-68
2021/08/14 03:59:46;;;;;;;59.63;3.80;;;17.10;1.00;;;;;;5090580;28;20540;-69
2021/08/14 04:02:15;;;;;;;58.90;3.70;;;17.10;1.00;;;;;;5090584;28;20647;-68
2021/08/14 04:04:41;;;;;;;59.30;3.60;;;17.10;1.00;;;;;;5090459;28;20586;-68
2021/08/14 04:07:08;;;;;;;58.60;3.70;;;17.20;1.00;;;;;;5090694;28;20548;-69
2021/08/14 04:09:35;;;;;;;58.40;2.90;;;17.10;1.00;;;;;;5090227;28;20535;-69
2021/08/14 04:12:02;;;;;;;59.17;3.40;;;17.10;1.00;;;;;;5090315;28;20578;-69
2021/08/14 04:14:29;;;;;;;58.10;2.80;;;17.10;1.00;;;;;;5091160;28;20444;-69
2021/08/14 04:16:56;;;;;;;58.63;3.17;;;17.10;1.00;;;;;;5092130;28;20539;-69
2021/08/14 04:19:24;;;;;;;59.10;3.20;;;17.10;1.00;;;;;;5091776;28;20527;-69
2021/08/14 04:21:51;;;;;;;58.53;3.47;;;17.10;1.00;;;;;;5091949;28;20476;-68
2021/08/14 04:24:18;;;;;;;58.37;3.00;;;17.10;1.00;;;;;;5091412;28;20481;-68
2021/08/14 04:26:45;;;;;;;59.00;3.20;;;17.10;1.00;;;;;;5090373;28;20448;-69
2021/08/14 04:29:11;;;;;;;58.80;2.87;;;17.10;1.00;;;;;;5090713;28;20540;-69
2021/08/14 04:31:38;;;;;;;58.87;3.90;;;17.00;1.00;;;;;;5090310;28;20464;-68
2021/08/14 04:34:05;;;;;;;58.37;2.80;;;17.00;1.00;;;;;;5090775;28;20552;-69
2021/08/14 04:36:34;;;;;;;58.60;3.17;;;17.00;1.00;;;;;;5090173;28;20948;-69
2021/08/14 04:39:00;;;;;;;58.60;3.03;;;17.00;1.00;;;;;;5090402;28;20448;-69
2021/08/14 04:41:27;;;;;;;58.67;3.30;;;16.90;1.00;;;;;;5090166;28;20508;-69
2021/08/14 04:43:54;;;;;;;58.53;2.77;;;16.90;1.00;;;;;;5090464;28;20662;-69
2021/08/14 04:46:21;;;;;;;58.37;2.60;;;16.90;1.00;;;;;;5091872;28;20484;-69
2021/08/14 04:48:48;;;;;;;58.77;3.47;;;17.00;1.00;;;;;;5092192;28;20483;-69
2021/08/14 04:51:15;;;;;;;58.13;2.80;;;17.00;1.00;;;;;;5091886;28;21044;-69
2021/08/14 04:53:43;;;;;;;58.50;3.10;;;17.10;1.00;;;;;;5092057;28;20535;-69
2021/08/14 04:56:10;;;;;;;58.77;3.37;;;17.10;1.00;;;;;;5090293;28;20453;-69
2021/08/14 04:58:37;;;;;;;58.57;3.10;;;17.00;1.00;;;;;;5090059;28;20834;-69
2021/08/14 05:01:04;;;;;;;58.77;3.53;;;17.00;1.00;;;;;;5089839;28;20511;-68
2021/08/14 05:03:30;;;;;;;58.37;2.70;;;17.00;1.00;;;;;;5092353;28;20562;-68
2021/08/14 05:05:57;;;;;;;59.00;3.60;;;17.10;1.00;;;;;;5093978;28;20448;-68
2021/08/14 05:08:24;;;;;;;58.60;3.10;;;17.10;1.00;;;;;;5094112;28;20491;-68
2021/08/14 05:10:53;;;;;;;58.77;3.20;;;17.10;1.00;;;;;;5093668;28;20493;-68
2021/08/14 05:13:19;;;;;;;59.07;3.43;;;17.20;1.00;;;;;;5094085;28;20536;-68
2021/08/14 05:15:46;;;;;;;58.37;2.90;;;17.20;1.00;;;;;;5095524;28;20533;-69
2021/08/14 05:18:15;;;;;;;59.00;3.93;;;17.20;1.00;;;;;;5095922;28;20453;-69
2021/08/14 05:20:42;;;;;;;58.07;3.30;;;17.20;1.00;;;;;;5095474;28;20879;-68
2021/08/14 05:23:09;;;;;;;58.53;3.30;;;17.30;1.00;;;;;;5095698;28;20476;-69
2021/08/14 05:25:36;;;;;;;58.30;3.40;;;17.30;1.00;;;;;;5094624;28;20457;-69
2021/08/14 05:28:04;;;;;;;58.80;2.83;;;17.30;1.00;;;;;;5093766;28;21031;-69
2021/08/14 05:30:31;;;;;;;58.20;2.90;;;17.30;1.00;;;;;;5093456;28;20982;-69
2021/08/14 05:32:58;;;;;;;58.70;3.17;;;17.30;1.00;;;;;;5093549;28;20479;-69
2021/08/14 05:35:26;;;;;;;58.27;2.90;;;17.40;1.00;;;;;;5093646;28;20536;-68
2021/08/14 05:37:53;;;;;;;58.47;2.83;;;17.40;1.00;;;;;;5093993;28;20453;-68
2021/08/14 05:40:19;;;;;;;58.47;2.70;;;17.40;1.00;;;;;;5092891;28;20452;-68
2021/08/14 05:42:47;;;;;;;58.37;2.80;;;17.50;1.00;;;;;;5093474;28;20897;-69
2021/08/14 05:45:15;;;;;;;58.27;2.87;;;17.50;1.00;;;;;;5094092;28;20481;-68
2021/08/14 05:47:42;;;;;;;58.53;3.27;;;17.50;1.00;;;;;;5095001;28;20953;-68
2021/08/14 05:50:10;;;;;;;59.13;3.63;;;17.60;1.00;;;;;;5094725;28;20455;-68
2021/08/14 05:52:37;;;;;;;58.37;3.17;;;17.60;1.00;;;;;;5094865;28;20468;-68
2021/08/14 05:55:05;;;;;;;59.20;3.10;;;17.70;1.00;;;;;;5093784;28;21022;-68
2021/08/14 05:57:31;;;;;;;57.67;2.60;;;17.80;1.00;;;;;;5091563;28;20456;-69
2021/08/14 05:59:58;;;;;;;64.50;3.10;;;17.80;1.00;;;;;;5091810;28;20571;-68
2021/08/14 06:02:26;;;;;;;59.07;3.77;;;17.90;1.00;;;;;;5092024;28;20462;-68
2021/08/14 06:04:53;;;;;;;57.87;2.83;;;17.90;1.00;;;;;;5091909;28;20492;-69
2021/08/14 06:07:20;;;;;;;58.43;3.20;;;18.00;1.00;;;;;;5091862;28;20448;-68
2021/08/14 06:09:47;;;;;;;59.00;3.33;;;18.00;1.00;;;;;;5091886;28;20475;-68
2021/08/14 06:12:14;;;;;;;58.37;2.97;;;18.10;1.00;;;;;;5092907;28;21020;-69
2021/08/14 06:14:41;;;;;;;59.00;3.67;;;18.20;1.00;;;;;;5092298;28;20593;-68
2021/08/14 06:17:07;;;;;;;58.03;2.83;;;18.20;1.00;;;;;;5094459;28;20450;-68
2021/08/14 06:19:36;;;;;;;58.43;2.60;;;18.30;1.00;;;;;;5094075;28;20985;-69
2021/08/14 06:22:04;;;;;;;59.10;4.00;;;18.30;1.00;;;;;;5094156;28;20886;-68
2021/08/14 06:24:31;;;;;;;58.50;3.30;;;18.40;1.00;;;;;;5094415;28;20492;-68
2021/08/14 06:26:58;;;;;;;58.77;3.50;;;18.50;1.00;;;;;;5092834;28;20801;-68
2021/08/14 06:29:24;;;;;;;57.77;3.03;;;18.60;1.00;;;;;;5092010;28;20445;-68
2021/08/14 06:31:51;;;;;;;58.37;3.00;;;18.60;1.00;;;;;;5092305;28;20464;-68
2021/08/14 06:34:18;;;;;;;58.17;3.10;;;18.70;1.00;;;;;;5092561;28;20529;-68
2021/08/14 06:36:46;;;;;;;60.40;3.53;;;18.80;1.00;;;;;;5092187;28;20456;-68
2021/08/14 06:39:13;;;;;;;58.27;2.90;;;18.80;1.00;;;;;;5092347;28;20446;-68
2021/08/14 06:41:40;;;;;;;59.27;3.10;;;18.90;1.00;;;;;;5092074;28;20569;-68
2021/08/14 06:44:07;;;;;;;58.10;2.70;;;19.00;1.00;;;;;;5091978;28;20517;-69
2021/08/14 06:46:35;;;;;;;59.00;4.07;;;19.10;1.00;;;;;;5093311;28;20532;-68
2021/08/14 06:49:03;;;;;;;58.40;3.17;;;19.20;1.00;;;;;;5093713;28;20454;-68
2021/08/14 06:51:30;;;;;;;58.30;2.80;;;19.30;1.00;;;;;;5093655;28;20466;-68
2021/08/14 06:53:58;;;;;;;58.60;2.97;;;19.40;1.00;;;;;;5093839;28;20817;-68
2021/08/14 06:56:25;;;;;;;58.80;3.20;;;19.50;1.00;;;;;;5092974;28;20449;-69
2021/08/14 06:58:52;;;;;;;58.90;3.50;;;19.60;1.00;;;;;;5094014;28;21143;-69
2021/08/14 07:01:18;;;;;;;58.60;3.00;;;19.70;1.00;;;;;;5093433;28;20832;-69
2021/08/14 07:03:45;;;;;;;58.60;2.90;;;19.80;1.00;;;;;;5093359;28;20875;-69
2021/08/14 07:06:19;;;;;;;58.40;2.80;;;19.90;1.00;;;;;;5093387;28;21005;-69
2021/08/14 07:08:46;;;;;;;58.80;3.90;;;20.00;1.00;;;;;;5093667;28;20541;-69
2021/08/14 07:11:14;;;;;;;58.90;3.10;;;20.10;1.00;;;;;;5093196;28;20561;-69
2021/08/14 07:13:41;;;;;;;58.90;3.00;;;20.20;1.00;;;;;;5093756;28;20477;-69
2021/08/14 07:16:07;;;;;;;57.73;2.60;;;20.40;1.00;;;;;;5093296;28;20537;-69
2021/08/14 07:18:34;;;;;;;58.80;3.13;;;20.50;1.00;;;;;;5093291;28;20446;-69
2021/08/14 07:21:01;;;;;;;58.37;3.10;;;20.60;1.00;;;;;;5093071;28;20458;-69
2021/08/14 07:23:28;;;;;;;58.20;3.30;;;20.70;1.00;;;;;;5093230;28;20449;-70
2021/08/14 07:25:55;;;;;;;58.60;3.10;;;20.80;1.00;;;;;;5092371;28;20483;-69
2021/08/14 07:28:23;;;;;;;59.07;3.10;;;20.90;1.00;;;;;;5093261;28;20482;-69
2021/08/14 07:30:51;;;;;;;59.07;3.27;;;21.00;1.00;;;;;;5092634;28;20603;-69
2021/08/14 07:33:18;;;;;;;58.20;2.90;;;21.10;1.00;;;;;;5093186;28;20527;-67
2021/08/14 07:35:46;;;;;;;58.80;3.30;;;21.30;1.00;;;;;;5093160;28;20443;-69
2021/08/14 07:38:13;;;;;;;58.10;2.70;;;21.40;1.00;;;;;;5093231;28;20723;-68
2021/08/14 07:40:40;;;;;;;58.60;3.13;;;21.50;1.00;;;;;;5092381;28;20462;-68
2021/08/14 07:43:08;;;;;;;59.50;2.97;;;21.60;1.00;;;;;;5092966;28;20546;-68
2021/08/14 07:45:37;;;;;;;58.37;2.77;;;21.70;1.00;;;;;;5092703;28;20484;-68
2021/08/14 07:48:05;;;;;;;58.13;2.60;;;21.80;1.00;;;;;;5092871;28;20442;-68
2021/08/14 07:50:33;;;;;;;58.60;3.50;;;22.00;1.00;;;;;;5092557;28;20833;-68
2021/08/14 07:53:02;;;;;;;57.77;2.70;;;22.10;1.00;;;;;;5092743;28;20449;-68
2021/08/14 07:55:29;;;;;;;58.07;2.60;;;22.20;1.00;;;;;;5092700;28;20450;-67
2021/08/14 07:57:56;;;;;;;58.43;2.63;;;22.40;1.00;;;;;;5092404;28;20457;-68
2021/08/14 08:00:25;;;;;;;58.57;2.97;;;22.50;1.00;;;;;;5092429;28;20457;-68
2021/08/14 08:02:54;;;;;;;58.67;2.57;;;22.60;1.00;;;;;;5092724;28;20447;-67
2021/08/14 08:05:21;;;;;;;58.40;3.40;;;22.70;1.00;;;;;;5092396;28;21028;-68
2021/08/14 08:07:48;;;;;;;59.00;4.20;;;22.80;1.00;;;;;;5092429;28;20476;-68
2021/08/14 08:10:17;;;;;;;58.27;3.00;;;22.90;1.00;;;;;;5092152;28;20446;-67
2021/08/14 08:12:44;;;;;;;59.80;3.30;;;23.00;1.00;;;;;;5092245;28;20462;-67
2021/08/14 08:15:12;;;;;;;59.20;3.20;;;23.10;1.00;;;;;;5092462;28;20825;-68
2021/08/14 08:17:40;;;;;;;58.60;2.97;;;23.30;1.00;;;;;;5092306;28;20465;-67
2021/08/14 08:20:11;;;;;;;59.53;3.53;;;23.40;1.00;;;;;;5091959;28;20448;-68
2021/08/14 08:22:38;;;;;;;60.57;3.40;;;23.50;1.00;;;;;;5092353;28;20553;-68
2021/08/14 08:25:05;;;;;;;58.67;2.77;;;23.70;1.00;;;;;;5091996;28;20563;-67
2021/08/14 08:27:32;;;;;;;58.13;2.53;;;23.80;1.00;;;;;;5091930;28;20456;-68
2021/08/14 08:29:59;;;;;;;58.67;2.63;;;24.00;1.00;;;;;;5092263;28;20459;-68
2021/08/14 08:32:26;;;;;;;59.10;3.10;;;24.10;1.00;;;;;;5091921;28;20549;-68
2021/08/14 08:34:53;;;;;;;58.63;2.93;;;24.20;1.00;;;;;;5092157;28;20442;-68
2021/08/14 08:37:21;;;;;;;58.90;3.27;;;24.30;1.00;;;;;;5091850;28;20596;-68
2021/08/14 08:39:48;;;;;;;58.37;2.70;;;24.40;1.00;;;;;;5092075;28;20485;-68
2021/08/14 08:42:15;;;;;;;58.43;2.77;;;24.60;1.00;;;;;;5091706;28;20561;-67
2021/08/14 08:44:41;;;;;;;58.00;2.50;;;24.80;1.00;;;;;;5091997;28;20573;-68
2021/08/14 08:47:10;;;;;;;59.57;3.20;;;24.90;1.00;;;;;;5092292;28;20761;-69
2021/08/14 08:49:50;;;;;;;58.47;2.70;;;25.10;1.00;;;;;;5091646;28;20530;-68
2021/08/14 08:52:16;;;;;;;59.20;3.87;;;25.20;1.00;;;;;;5091431;28;20476;-69
2021/08/14 08:54:45;;;;;;;58.80;3.33;;;25.30;1.00;;;;;;5092013;28;20500;-69
2021/08/14 08:57:12;;;;;;;58.87;3.17;;;25.40;1.00;;;;;;5091798;28;20530;-69
2021/08/14 08:59:39;;;;;;;59.20;3.20;;;25.60;1.00;;;;;;5091704;28;20726;-69
2021/08/14 09:02:05;;;;;;;59.10;3.60;;;25.60;1.00;;;;;;5091225;28;20468;-69
2021/08/14 09:04:33;;;;;;;58.43;3.07;;;25.70;1.00;;;;;;5091096;28;20851;-68
2021/08/14 09:07:01;;;;;;;58.70;2.90;;;25.70;1.00;;;;;;5091671;28;20455;-69
2021/08/14 09:09:29;;;;;;;58.77;2.97;;;25.90;1.00;;;;;;5091733;28;20538;-69
2021/08/14 09:12:03;;;;;;;59.70;3.33;;;25.90;1.00;;;;;;5091421;28;20560;-69
2021/08/14 09:14:44;;;;;;;59.30;2.60;;;26.00;1.00;;;;;;5091897;28;20447;-69
2021/08/14 09:17:11;;;;;;;58.10;2.67;;;26.10;1.00;;;;;;5091190;28;20527;-69
2021/08/14 09:19:38;;;;;;;58.87;3.40;;;26.30;1.00;;;;;;5091096;28;20441;-69
2021/08/14 09:22:15;;;;;;;61.37;5.00;;;26.50;1.00;;;;;;5091638;28;20507;-68
2021/08/14 09:24:43;;;;;;;61.13;4.80;;;26.60;1.00;;;;;;5091791;28;20570;-68
2021/08/14 09:27:15;;;;;;;58.77;3.20;;;26.70;1.00;;;;;;5090698;28;20738;-69
2021/08/14 09:29:43;;;;;;;59.60;4.10;;;26.80;1.00;;;;;;5090666;28;20872;-69
2021/08/14 09:32:12;;;;;;;59.13;3.43;;;26.90;1.00;;;;;;5091545;28;20561;-69
2021/08/14 09:34:41;;;;;;;59.40;3.20;;;27.10;1.00;;;;;;5091639;28;20478;-69
2021/08/14 09:37:10;;;;;;;58.23;2.40;;;27.20;1.00;;;;;;5091396;28;20459;-69
2021/08/14 09:39:51;;;;;;;58.10;2.70;;;27.30;1.00;;;;;;5091119;28;20492;-69
2021/08/14 09:42:19;;;;;;;58.50;3.17;;;27.40;1.00;;;;;;5091434;28;20564;-69
2021/08/14 09:44:46;;;;;;;58.57;2.93;;;27.60;1.00;;;;;;5091419;28;20481;-69
2021/08/14 09:47:33;;;;;;;58.60;3.20;;;27.80;1.00;;;;;;5091352;28;20865;-69
2021/08/14 09:50:00;;;;;;;59.30;4.00;;;27.90;1.00;;;;;;5094090;28;20449;-69
2021/08/14 09:52:27;;;;;;;58.47;2.43;;;28.10;1.00;;;;;;5094841;28;20466;-67
2021/08/14 09:54:55;;;;;;;59.27;3.13;;;28.30;1.00;;;;;;5095160;28;20532;-69
2021/08/14 09:57:24;;;;;;;58.60;2.47;;;28.40;1.00;;;;;;5094805;28;20444;-69
2021/08/14 09:59:52;;;;;;;58.53;3.20;;;28.60;1.00;;;;;;5094639;28;20942;-69
2021/08/14 10:02:23;;;;;;;59.17;3.00;;;28.80;1.00;;;;;;5094909;28;20541;-69
2021/08/14 10:04:51;;;;;;;58.83;3.13;;;29.10;1.00;;;;;;5094868;28;20569;-69
2021/08/14 10:07:18;;;;;;;58.87;2.67;;;29.30;1.00;;;;;;5094780;28;20446;-69
2021/08/14 10:09:47;;;;;;;59.20;2.80;;;29.50;1.00;;;;;;5094747;28;20469;-69
2021/08/14 10:12:17;;;;;;;58.83;3.17;;;29.80;1.00;;;;;;5094605;28;20469;-69
2021/08/14 10:14:47;;;;;;;58.60;3.17;;;30.00;1.00;;;;;;5094584;28;20443;-69
2021/08/14 10:17:16;;;;;;;59.13;3.50;;;30.50;1.00;;;;;;5094680;28;20558;-70
2021/08/14 10:19:45;;;;;;;57.87;2.70;;;31.20;1.00;;;;;;5094189;28;20864;-70
2021/08/14 10:22:12;;;;;;;59.83;3.90;;;32.00;1.00;;;;;;5094488;28;20478;-70
2021/08/14 10:24:41;;;;;;;58.40;2.87;;;32.80;1.00;;;;;;5094503;28;20450;-70
2021/08/14 10:27:09;;;;;;;58.87;2.80;;;33.60;1.00;;;;;;5094393;28;20446;-70
2021/08/14 10:29:46;;;;;;;57.97;2.63;;;34.40;1.00;;;;;;5094065;28;20818;-70
2021/08/14 10:32:48;;;;;;;57.70;2.80;;;35.00;1.00;;;;;;5094086;28;20545;-67
2021/08/14 10:35:34;;;;;;;58.07;2.80;;;35.60;1.00;;;;;;5092500;28;20480;-67
2021/08/14 10:38:01;;;;;;;58.47;3.17;;;36.30;1.00;;;;;;5094144;28;20960;-67
2021/08/14 10:41:05;;;;;;;57.67;2.70;;;37.00;1.00;;;;;;5093513;28;20450;-67
2021/08/14 10:43:59;;;;;;;57.50;3.03;;;37.40;1.00;;;;;;5083714;28;20456;-68
2021/08/14 10:46:42;;;;;;;58.37;2.93;;;37.70;1.00;;;;;;5057941;28;20941;-68
2021/08/14 10:49:11;;;;;;;57.40;3.00;;;38.30;1.00;;;;;;5093638;28;20448;-68
2021/08/14 10:52:13;;;;;;;58.13;3.03;;;38.90;1.00;;;;;;5093920;28;20549;-68
2021/08/14 10:55:05;;;;;;;59.70;4.53;;;39.10;1.00;;;;;;5093817;28;20445;-68
2021/08/14 10:57:40;;;;;;;57.57;2.87;;;39.70;1.00;;;;;;5093818;28;20533;-68
2021/08/14 11:00:14;;;;;;;57.70;3.10;;;40.10;1.00;;;;;;5093551;28;20442;-68
2021/08/14 11:05:35;;;;;;;57.67;3.10;;;40.40;1.00;;;;;;5089490;28;20513;-68
2021/08/14 11:08:02;;;;;;;59.07;3.47;;;41.40;1.00;;;;;;5089442;28;20450;-69
2021/08/14 11:10:34;;;;;;;56.57;2.60;;;41.80;1.00;;;;;;5089168;28;20442;-69
2021/08/14 11:13:02;;;;;;;56.90;2.43;;;42.20;1.00;;;;;;5089406;28;20474;-69
2021/08/14 11:15:37;;;;;;;57.00;2.70;;;42.50;1.00;;;;;;5089250;28;20442;-69
2021/08/14 11:18:05;;;;;;;58.27;3.10;;;41.80;1.00;;;;;;5089061;28;20448;-69
2021/08/14 11:20:39;;;;;;;56.47;3.03;;;41.10;1.00;;;;;;5089056;28;20439;-69
2021/08/14 11:23:24;;;;;;;57.33;2.50;;;41.00;1.00;;;;;;5089387;28;20442;-69
2021/08/14 11:25:51;;;;;;;57.00;2.63;;;41.50;1.00;;;;;;5088997;28;20989;-69
2021/08/14 11:28:23;;;;;;;56.87;2.40;;;42.00;1.00;;;;;;5088877;28;20451;-69
2021/08/14 11:30:56;;;;;;;56.90;2.43;;;42.30;1.00;;;;;;5088682;28;21001;-69
2021/08/14 11:33:24;;;;;;;56.87;2.97;;;42.70;1.00;;;;;;5089251;28;20538;-69
2021/08/14 11:36:04;;;;;;;57.43;2.80;;;42.10;1.00;;;;;;5088830;28;20960;-69
2021/08/14 11:38:35;;;;;;;58.37;2.87;;;40.70;1.00;;;;;;5088874;28;20964;-69
2021/08/14 11:41:09;;;;;;;57.60;3.00;;;39.30;1.00;;;;;;5088725;28;20502;-68
2021/08/14 11:43:39;;;;;;;57.90;3.10;;;39.20;1.00;;;;;;5088831;28;20493;-68
2021/08/14 11:46:07;;;;;;;57.40;3.07;;;39.50;1.00;;;;;;5088870;28;20456;-70
2021/08/14 11:48:42;;;;;;;57.97;3.20;;;40.10;1.00;;;;;;5088773;28;20443;-70
2021/08/14 11:51:20;;;;;;;57.90;2.70;;;40.70;1.00;;;;;;5088224;28;20548;-70
2021/08/14 11:53:48;;;;;;;57.80;2.73;;;40.90;1.00;;;;;;5088720;28;20439;-70
2021/08/14 11:56:16;;;;;;;56.50;2.30;;;41.20;1.00;;;;;;5088570;28;20453;-69
2021/08/14 11:58:44;;;;;;;57.80;2.73;;;41.60;1.00;;;;;;5088700;28;20451;-70
2021/08/14 12:01:12;;;;;;;58.20;3.17;;;41.90;1.00;;;;;;5088164;28;20546;-70
2021/08/14 12:03:39;;;;;;;56.57;2.53;;;42.20;1.00;;;;;;5088162;28;20833;-70
2021/08/14 12:06:08;;;;;;;56.90;2.40;;;42.70;1.00;;;;;;5088164;28;20542;-68
2021/08/14 12:08:37;;;;;;;56.80;2.50;;;42.70;1.00;;;;;;5088544;28;20465;-68
2021/08/14 12:11:06;;;;;;;56.70;2.40;;;42.80;1.00;;;;;;5087754;28;20467;-68
2021/08/14 12:13:34;;;;;;;56.40;3.13;;;43.10;1.00;;;;;;5088184;28;20533;-68
2021/08/14 12:16:13;;;;;;;57.87;2.97;;;43.30;1.00;;;;;;5079722;28;20443;-68
2021/08/14 12:18:41;;;;;;;58.10;2.60;;;43.70;1.00;;;;;;5074627;28;20965;-68
2021/08/14 12:21:09;;;;;;;56.80;2.77;;;43.80;1.00;;;;;;5074356;28;20471;-68
2021/08/14 12:23:39;;;;;;;56.47;2.40;;;43.80;1.00;;;;;;5074465;28;20483;-69
2021/08/14 12:26:09;;;;;;;57.10;2.77;;;43.70;1.00;;;;;;5074631;28;20710;-69
2021/08/14 12:28:37;;;;;;;56.97;2.60;;;43.50;1.00;;;;;;5074415;28;20932;-69
2021/08/14 12:31:16;;;;;;;56.60;2.70;;;43.20;1.00;;;;;;5073889;28;20470;-69
2021/08/14 12:33:49;;;;;;;56.53;2.47;;;42.80;1.00;;;;;;5074499;28;20538;-69
2021/08/14 12:36:17;;;;;;;57.13;2.63;;;41.90;1.00;;;;;;5074660;28;20454;-69
2021/08/14 12:38:50;;;;;;;58.03;2.80;;;41.50;1.00;;;;;;5074206;28;20443;-69
2021/08/14 12:41:19;;;;;;;57.07;3.17;;;41.00;1.00;;;;;;5073581;28;20478;-69
2021/08/14 12:43:46;;;;;;;56.97;2.20;;;40.10;1.00;;;;;;5074167;28;20444;-70
2021/08/14 12:46:20;;;;;;;57.97;2.87;;;39.10;1.00;;;;;;5074101;28;20439;-70
2021/08/14 12:49:24;;;;;;;57.50;2.83;;;38.60;1.00;;;;;;5073962;28;20439;-70
2021/08/14 12:51:59;;;;;;;57.27;2.50;;;37.80;1.00;;;;;;5063515;28;20482;-69
2021/08/14 12:54:28;;;;;;;57.80;3.10;;;37.30;1.00;;;;;;5073928;28;20530;-69
2021/08/14 12:56:55;;;;;;;57.10;2.43;;;37.40;1.00;;;;;;5073764;28;21035;-69
2021/08/14 12:59:22;;;;;;;57.60;3.40;;;38.20;1.00;;;;;;5073629;28;20454;-69